createdAt,value
2018-12-07T00:00:31.339Z,11.70
2018-12-07T00:02:59.913Z,11.80
2018-12-07T00:05:28.477Z,11.80
2018-12-07T00:07:57.110Z,11.70
2018-12-07T00:10:25.654Z,11.70
2018-12-07T00:12:54.242Z,11.70
2018-12-07T00:15:22.744Z,11.70
2018-12-07T00:17:51.258Z,11.70
2018-12-07T00:20:19.816Z,11.60
2018-12-07T00:22:48.401Z,11.50
2018-12-07T00:25:17.044Z,11.60
2018-12-07T00:27:45.538Z,11.50
2018-12-07T00:30:14.112Z,11.50
2018-12-07T00:32:42.632Z,11.50
2018-12-07T00:35:11.165Z,11.50
2018-12-07T00:37:39.643Z,11.50
2018-12-07T00:40:08.152Z,11.50
2018-12-07T00:42:36.603Z,11.50
2018-12-07T00:45:05.551Z,11.50
2018-12-07T00:47:34.106Z,11.50
2018-12-07T00:50:02.642Z,11.50
2018-12-07T00:52:31.170Z,11.50
2018-12-07T00:54:59.715Z,11.50
2018-12-07T00:57:28.256Z,11.50
2018-12-07T00:59:56.746Z,11.50
2018-12-07T01:02:25.313Z,11.50
2018-12-07T01:04:53.829Z,11.50
2018-12-07T01:07:22.385Z,11.40
2018-12-07T01:09:50.911Z,11.50
2018-12-07T01:12:19.436Z,11.40
2018-12-07T01:14:47.986Z,11.40
2018-12-07T01:17:16.525Z,11.40
2018-12-07T01:19:45.040Z,11.40
2018-12-07T01:22:13.541Z,11.40
2018-12-07T01:24:42.050Z,11.40
2018-12-07T01:27:10.525Z,11.40
2018-12-07T01:29:39.056Z,11.40
2018-12-07T01:32:07.590Z,11.40
2018-12-07T01:34:36.138Z,11.40
2018-12-07T01:37:04.663Z,11.40
2018-12-07T01:39:33.225Z,11.40
2018-12-07T01:42:01.749Z,11.40
2018-12-07T01:44:30.269Z,11.40
2018-12-07T01:46:58.812Z,11.40
2018-12-07T01:49:27.343Z,11.40
2018-12-07T01:51:55.898Z,11.40
2018-12-07T01:54:24.502Z,11.40
2018-12-07T01:56:53.045Z,11.40
2018-12-07T01:59:21.553Z,11.40
2018-12-07T02:01:50.034Z,11.40
2018-12-07T02:04:18.533Z,11.30
2018-12-07T02:06:47.080Z,11.30
2018-12-07T02:09:15.595Z,11.30
2018-12-07T02:11:44.134Z,11.30
2018-12-07T02:14:12.647Z,11.30
2018-12-07T02:16:41.173Z,11.30
2018-12-07T02:19:09.662Z,11.30
2018-12-07T02:21:38.120Z,11.30
2018-12-07T02:24:06.622Z,11.30
2018-12-07T02:26:35.131Z,11.30
2018-12-07T02:29:03.661Z,11.30
2018-12-07T02:31:32.141Z,11.30
2018-12-07T02:34:00.703Z,11.30
2018-12-07T02:36:29.273Z,11.20
2018-12-07T02:38:57.772Z,11.20
2018-12-07T02:41:26.248Z,11.30
2018-12-07T02:43:54.737Z,11.30
2018-12-07T02:46:23.192Z,11.30
2018-12-07T02:48:51.686Z,11.20
2018-12-07T02:51:20.187Z,11.30
2018-12-07T02:53:48.672Z,11.30
2018-12-07T02:56:17.203Z,11.20
2018-12-07T02:58:45.764Z,11.30
2018-12-07T03:01:14.328Z,11.30
2018-12-07T03:03:42.869Z,11.30
2018-12-07T03:06:11.488Z,11.30
2018-12-07T03:08:40.050Z,11.30
2018-12-07T03:11:08.645Z,11.30
2018-12-07T03:13:37.171Z,11.30
2018-12-07T03:16:05.722Z,11.30
2018-12-07T03:18:34.237Z,11.30
2018-12-07T03:21:02.756Z,11.30
2018-12-07T03:23:31.277Z,11.30
2018-12-07T03:25:59.779Z,11.30
2018-12-07T03:28:28.290Z,11.30
2018-12-07T03:30:56.812Z,11.30
2018-12-07T03:33:25.314Z,11.30
2018-12-07T03:35:53.808Z,11.30
2018-12-07T03:38:22.292Z,11.30
2018-12-07T03:40:50.896Z,11.30
2018-12-07T03:43:19.428Z,11.30
2018-12-07T03:45:47.902Z,11.30
2018-12-07T03:48:16.443Z,11.40
2018-12-07T03:50:44.915Z,11.30
2018-12-07T03:53:13.396Z,11.40
2018-12-07T03:55:41.861Z,11.40
2018-12-07T03:58:10.317Z,11.40
2018-12-07T04:00:38.805Z,11.40
2018-12-07T04:03:07.296Z,11.40
2018-12-07T04:05:35.804Z,11.30
2018-12-07T04:08:04.323Z,11.40
2018-12-07T04:10:32.807Z,11.40
2018-12-07T04:13:01.311Z,11.40
2018-12-07T04:15:29.940Z,11.30
2018-12-07T04:17:58.481Z,11.40
2018-12-07T04:20:26.988Z,11.30
2018-12-07T04:22:55.567Z,11.30
2018-12-07T04:25:24.127Z,11.30
2018-12-07T04:27:52.641Z,11.30
2018-12-07T04:30:26.894Z,11.30
2018-12-07T04:32:55.443Z,11.30
2018-12-07T04:35:23.969Z,11.40
2018-12-07T04:37:52.540Z,11.30
2018-12-07T04:40:21.129Z,11.30
2018-12-07T04:42:49.751Z,11.30
2018-12-07T04:45:18.417Z,11.40
2018-12-07T04:47:46.986Z,11.40
2018-12-07T04:50:15.512Z,11.30
2018-12-07T04:52:44.050Z,11.40
2018-12-07T04:55:12.547Z,11.40
2018-12-07T04:57:41.044Z,11.40
2018-12-07T05:00:09.557Z,11.30
2018-12-07T05:02:38.055Z,11.30
2018-12-07T05:05:06.514Z,11.30
2018-12-07T05:07:35.056Z,11.30
2018-12-07T05:10:03.581Z,11.40
2018-12-07T05:12:32.090Z,11.40
2018-12-07T05:15:00.641Z,11.40
2018-12-07T05:17:29.149Z,11.30
2018-12-07T05:19:57.634Z,11.30
2018-12-07T05:22:26.143Z,11.30
2018-12-07T05:24:54.615Z,11.30
2018-12-07T05:27:23.107Z,11.30
2018-12-07T05:29:51.695Z,11.30
2018-12-07T05:32:20.435Z,11.30
2018-12-07T05:34:48.972Z,11.40
2018-12-07T05:37:17.496Z,11.30
2018-12-07T05:39:46.050Z,11.30
2018-12-07T05:42:14.531Z,11.30
2018-12-07T05:44:43.052Z,11.40
2018-12-07T05:47:11.575Z,11.40
2018-12-07T05:49:40.066Z,11.40
2018-12-07T05:52:08.565Z,11.40
2018-12-07T05:54:37.079Z,11.40
2018-12-07T05:57:05.602Z,11.40
2018-12-07T05:59:34.144Z,11.40
2018-12-07T06:02:02.713Z,11.40
2018-12-07T06:04:31.240Z,11.40
2018-12-07T06:06:59.802Z,11.40
2018-12-07T06:09:28.298Z,11.40
2018-12-07T06:11:56.851Z,11.40
2018-12-07T06:14:25.333Z,11.40
2018-12-07T06:16:53.875Z,11.40
2018-12-07T06:19:22.366Z,11.40
2018-12-07T06:21:50.948Z,11.40
2018-12-07T06:24:19.443Z,11.40
2018-12-07T06:26:54.876Z,11.40
2018-12-07T06:29:23.478Z,11.40
2018-12-07T06:31:52.021Z,11.40
2018-12-07T06:34:20.629Z,11.40
2018-12-07T06:36:49.240Z,11.40
2018-12-07T06:39:17.800Z,11.50
2018-12-07T06:41:46.481Z,11.40
2018-12-07T06:44:15.137Z,11.40
2018-12-07T06:46:43.761Z,11.40
2018-12-07T06:49:13.519Z,11.40
2018-12-07T06:51:43.524Z,11.40
2018-12-07T06:54:12.367Z,11.50
2018-12-07T06:56:40.926Z,11.50
2018-12-07T06:59:09.503Z,11.50
2018-12-07T07:01:38.064Z,11.50
2018-12-07T07:04:38.186Z,11.50
2018-12-07T07:07:06.813Z,11.50
2018-12-07T07:09:35.615Z,11.50
2018-12-07T07:12:09.469Z,11.50
2018-12-07T07:14:41.703Z,11.50
2018-12-07T07:17:11.472Z,11.40
2018-12-07T07:19:43.555Z,11.50
2018-12-07T07:22:12.120Z,11.50
2018-12-07T07:24:41.833Z,11.60
2018-12-07T07:27:10.460Z,11.60
2018-12-07T07:29:38.896Z,11.60
2018-12-07T07:32:07.347Z,11.60
2018-12-07T07:34:36.160Z,11.70
2018-12-07T07:37:05.941Z,11.60
2018-12-07T07:46:19.654Z,12.00
2018-12-07T07:48:48.386Z,11.90
2018-12-07T07:51:17.030Z,11.80
2018-12-07T07:53:45.574Z,11.80
2018-12-07T07:56:15.502Z,11.80
2018-12-07T07:58:44.415Z,11.80
2018-12-07T08:01:12.931Z,11.70
2018-12-07T08:03:41.453Z,11.80
2018-12-07T08:06:09.937Z,11.80
2018-12-07T08:08:38.497Z,11.80
2018-12-07T08:11:07.039Z,12.00
2018-12-07T08:13:35.838Z,12.00
2018-12-07T08:16:04.400Z,11.90
2018-12-07T08:18:32.957Z,12.00
2018-12-07T08:21:01.536Z,12.00
2018-12-07T08:23:30.055Z,12.00
2018-12-07T08:25:58.732Z,11.90
2018-12-07T08:28:27.855Z,11.90
2018-12-07T08:30:56.687Z,12.00
